sensor_id;sensor_type;location;lat;lon;timestamp;P1;durP1;ratioP1;P2;durP2;ratioP2
37047;SDS011;23227;48.780;9.210;2022-12-28T00:01:06;5.73;;;2.20;;
37047;SDS011;23227;48.780;9.210;2022-12-28T00:04:12;5.00;;;2.33;;
37047;SDS011;23227;48.780;9.210;2022-12-28T00:07:16;5.20;;;2.70;;
37047;SDS011;23227;48.780;9.210;2022-12-28T00:13:41;6.23;;;3.47;;
37047;SDS011;23227;48.780;9.210;2022-12-28T00:16:44;9.93;;;4.20;;
37047;SDS011;23227;48.780;9.210;2022-12-28T00:19:47;10.43;;;3.33;;
37047;SDS011;23227;48.780;9.210;2022-12-28T00:22:50;7.67;;;3.60;;
37047;SDS011;23227;48.780;9.210;2022-12-28T00:28:56;8.13;;;3.43;;
37047;SDS011;23227;48.780;9.210;2022-12-28T00:32:05;8.67;;;3.83;;
37047;SDS011;23227;48.780;9.210;2022-12-28T00:35:08;11.03;;;4.10;;
37047;SDS011;23227;48.780;9.210;2022-12-28T00:38:12;7.27;;;3.60;;
37047;SDS011;23227;48.780;9.210;2022-12-28T00:41:14;5.53;;;3.40;;
37047;SDS011;23227;48.780;9.210;2022-12-28T00:44:17;6.87;;;3.77;;
37047;SDS011;23227;48.780;9.210;2022-12-28T00:47:20;10.47;;;3.80;;
37047;SDS011;23227;48.780;9.210;2022-12-28T00:50:22;6.77;;;2.63;;
37047;SDS011;23227;48.780;9.210;2022-12-28T00:53:26;8.13;;;3.63;;
37047;SDS011;23227;48.780;9.210;2022-12-28T00:59:31;9.47;;;2.70;;
37047;SDS011;23227;48.780;9.210;2022-12-28T01:02:33;7.17;;;3.20;;
37047;SDS011;23227;48.780;9.210;2022-12-28T01:05:37;7.47;;;3.90;;
37047;SDS011;23227;48.780;9.210;2022-12-28T01:08:41;8.52;;;3.10;;
37047;SDS011;23227;48.780;9.210;2022-12-28T01:11:44;6.87;;;3.87;;
37047;SDS011;23227;48.780;9.210;2022-12-28T01:14:46;6.30;;;2.60;;
37047;SDS011;23227;48.780;9.210;2022-12-28T01:17:49;9.60;;;4.00;;
37047;SDS011;23227;48.780;9.210;2022-12-28T01:20:52;6.10;;;3.30;;
37047;SDS011;23227;48.780;9.210;2022-12-28T01:23:56;6.10;;;3.07;;
37047;SDS011;23227;48.780;9.210;2022-12-28T01:27:00;6.83;;;4.20;;
37047;SDS011;23227;48.780;9.210;2022-12-28T01:30:03;4.30;;;2.43;;
37047;SDS011;23227;48.780;9.210;2022-12-28T01:33:06;2.17;;;1.67;;
37047;SDS011;23227;48.780;9.210;2022-12-28T01:36:10;8.30;;;3.40;;
37047;SDS011;23227;48.780;9.210;2022-12-28T01:39:16;3.87;;;2.73;;
37047;SDS011;23227;48.780;9.210;2022-12-28T01:45:21;2.90;;;1.90;;
37047;SDS011;23227;48.780;9.210;2022-12-28T01:48:24;3.87;;;1.70;;
37047;SDS011;23227;48.780;9.210;2022-12-28T01:51:27;8.23;;;2.30;;
37047;SDS011;23227;48.780;9.210;2022-12-28T01:54:34;7.73;;;3.83;;
37047;SDS011;23227;48.780;9.210;2022-12-28T01:57:42;6.90;;;3.57;;
37047;SDS011;23227;48.780;9.210;2022-12-28T02:00:47;8.90;;;4.13;;
37047;SDS011;23227;48.780;9.210;2022-12-28T02:03:50;7.63;;;2.80;;
37047;SDS011;23227;48.780;9.210;2022-12-28T02:06:53;7.13;;;3.23;;
37047;SDS011;23227;48.780;9.210;2022-12-28T02:09:57;4.03;;;2.50;;
37047;SDS011;23227;48.780;9.210;2022-12-28T02:13:20;3.50;;;2.15;;
37047;SDS011;23227;48.780;9.210;2022-12-28T02:16:23;3.17;;;1.65;;
37047;SDS011;23227;48.780;9.210;2022-12-28T02:19:29;3.73;;;2.17;;
37047;SDS011;23227;48.780;9.210;2022-12-28T02:22:44;5.03;;;2.13;;
37047;SDS011;23227;48.780;9.210;2022-12-28T02:29:44;2.25;;;1.17;;
37047;SDS011;23227;48.780;9.210;2022-12-28T02:33:04;5.57;;;1.23;;
37047;SDS011;23227;48.780;9.210;2022-12-28T02:36:10;2.87;;;1.20;;
37047;SDS011;23227;48.780;9.210;2022-12-28T02:39:20;5.37;;;1.37;;
37047;SDS011;23227;48.780;9.210;2022-12-28T02:42:24;4.10;;;1.47;;
37047;SDS011;23227;48.780;9.210;2022-12-28T02:45:36;1.33;;;0.75;;
37047;SDS011;23227;48.780;9.210;2022-12-28T02:48:57;1.63;;;1.07;;
37047;SDS011;23227;48.780;9.210;2022-12-28T02:52:33;2.27;;;1.20;;
37047;SDS011;23227;48.780;9.210;2022-12-28T02:55:52;3.53;;;1.38;;
37047;SDS011;23227;48.780;9.210;2022-12-28T02:59:11;2.27;;;0.87;;
37047;SDS011;23227;48.780;9.210;2022-12-28T03:02:33;1.03;;;0.87;;
37047;SDS011;23227;48.780;9.210;2022-12-28T03:05:47;3.10;;;1.00;;
37047;SDS011;23227;48.780;9.210;2022-12-28T03:09:23;2.28;;;0.68;;
37047;SDS011;23227;48.780;9.210;2022-12-28T03:12:30;1.53;;;0.73;;
37047;SDS011;23227;48.780;9.210;2022-12-28T03:15:35;1.20;;;0.80;;
37047;SDS011;23227;48.780;9.210;2022-12-28T03:18:40;1.30;;;0.90;;
37047;SDS011;23227;48.780;9.210;2022-12-28T03:22:02;0.68;;;0.60;;
37047;SDS011;23227;48.780;9.210;2022-12-28T03:25:24;0.90;;;0.80;;
37047;SDS011;23227;48.780;9.210;2022-12-28T03:28:45;0.80;;;0.63;;
37047;SDS011;23227;48.780;9.210;2022-12-28T03:32:06;1.63;;;0.80;;
37047;SDS011;23227;48.780;9.210;2022-12-28T03:35:11;3.08;;;1.00;;
37047;SDS011;23227;48.780;9.210;2022-12-28T03:38:15;1.17;;;0.97;;
37047;SDS011;23227;48.780;9.210;2022-12-28T03:41:27;1.25;;;1.00;;
37047;SDS011;23227;48.780;9.210;2022-12-28T03:44:32;4.17;;;2.03;;
37047;SDS011;23227;48.780;9.210;2022-12-28T03:47:35;7.37;;;3.13;;
37047;SDS011;23227;48.780;9.210;2022-12-28T03:53:44;6.40;;;3.77;;
37047;SDS011;23227;48.780;9.210;2022-12-28T03:56:48;4.73;;;3.17;;
37047;SDS011;23227;48.780;9.210;2022-12-28T04:02:53;7.10;;;3.50;;
37047;SDS011;23227;48.780;9.210;2022-12-28T04:05:58;7.43;;;3.63;;
37047;SDS011;23227;48.780;9.210;2022-12-28T04:09:01;4.63;;;1.53;;
37047;SDS011;23227;48.780;9.210;2022-12-28T04:12:04;4.93;;;1.73;;
37047;SDS011;23227;48.780;9.210;2022-12-28T04:15:07;2.53;;;1.98;;
37047;SDS011;23227;48.780;9.210;2022-12-28T04:18:10;5.00;;;2.80;;
37047;SDS011;23227;48.780;9.210;2022-12-28T04:21:14;10.20;;;3.03;;
37047;SDS011;23227;48.780;9.210;2022-12-28T04:24:16;2.03;;;1.37;;
37047;SDS011;23227;48.780;9.210;2022-12-28T04:27:19;4.37;;;2.20;;
37047;SDS011;23227;48.780;9.210;2022-12-28T04:30:24;1.87;;;1.40;;
37047;SDS011;23227;48.780;9.210;2022-12-28T04:33:26;0.70;;;0.70;;
37047;SDS011;23227;48.780;9.210;2022-12-28T04:36:31;2.92;;;0.88;;
37047;SDS011;23227;48.780;9.210;2022-12-28T04:39:33;1.20;;;0.90;;
37047;SDS011;23227;48.780;9.210;2022-12-28T04:42:56;4.73;;;1.33;;
37047;SDS011;23227;48.780;9.210;2022-12-28T04:45:59;2.97;;;1.00;;
37047;SDS011;23227;48.780;9.210;2022-12-28T04:49:03;1.80;;;0.77;;
37047;SDS011;23227;48.780;9.210;2022-12-28T04:52:07;2.87;;;0.90;;
37047;SDS011;23227;48.780;9.210;2022-12-28T04:55:10;0.70;;;0.60;;
37047;SDS011;23227;48.780;9.210;2022-12-28T04:58:33;2.07;;;0.97;;
37047;SDS011;23227;48.780;9.210;2022-12-28T05:01:36;1.45;;;0.75;;
37047;SDS011;23227;48.780;9.210;2022-12-28T05:04:39;5.65;;;0.90;;
37047;SDS011;23227;48.780;9.210;2022-12-28T05:07:43;1.00;;;0.80;;
37047;SDS011;23227;48.780;9.210;2022-12-28T05:10:45;2.40;;;0.80;;
37047;SDS011;23227;48.780;9.210;2022-12-28T05:13:48;2.07;;;0.90;;
37047;SDS011;23227;48.780;9.210;2022-12-28T05:16:51;2.00;;;0.95;;
37047;SDS011;23227;48.780;9.210;2022-12-28T05:19:53;0.97;;;0.80;;
37047;SDS011;23227;48.780;9.210;2022-12-28T05:22:57;2.10;;;0.70;;
37047;SDS011;23227;48.780;9.210;2022-12-28T05:26:00;2.20;;;0.77;;
37047;SDS011;23227;48.780;9.210;2022-12-28T05:29:03;3.30;;;0.80;;
37047;SDS011;23227;48.780;9.210;2022-12-28T05:32:05;2.83;;;0.80;;
37047;SDS011;23227;48.780;9.210;2022-12-28T05:35:08;2.30;;;0.70;;
37047;SDS011;23227;48.780;9.210;2022-12-28T05:38:12;0.57;;;0.57;;
37047;SDS011;23227;48.780;9.210;2022-12-28T05:41:15;2.03;;;0.90;;
37047;SDS011;23227;48.780;9.210;2022-12-28T05:44:19;2.13;;;0.80;;
37047;SDS011;23227;48.780;9.210;2022-12-28T05:47:24;3.50;;;0.87;;
37047;SDS011;23227;48.780;9.210;2022-12-28T05:50:26;0.77;;;0.67;;
37047;SDS011;23227;48.780;9.210;2022-12-28T05:53:30;1.23;;;0.97;;
37047;SDS011;23227;48.780;9.210;2022-12-28T05:56:33;1.67;;;0.73;;
37047;SDS011;23227;48.780;9.210;2022-12-28T05:59:36;1.48;;;0.98;;
37047;SDS011;23227;48.780;9.210;2022-12-28T06:02:39;1.80;;;0.90;;
37047;SDS011;23227;48.780;9.210;2022-12-28T06:05:41;2.40;;;0.70;;
37047;SDS011;23227;48.780;9.210;2022-12-28T06:08:47;2.47;;;0.80;;
37047;SDS011;23227;48.780;9.210;2022-12-28T06:11:50;1.40;;;0.70;;
37047;SDS011;23227;48.780;9.210;2022-12-28T06:14:53;2.47;;;0.70;;
37047;SDS011;23227;48.780;9.210;2022-12-28T06:17:55;0.73;;;0.68;;
37047;SDS011;23227;48.780;9.210;2022-12-28T06:21:02;3.20;;;1.00;;
37047;SDS011;23227;48.780;9.210;2022-12-28T06:24:07;1.30;;;0.67;;
37047;SDS011;23227;48.780;9.210;2022-12-28T06:27:10;1.40;;;0.73;;
37047;SDS011;23227;48.780;9.210;2022-12-28T06:30:13;3.80;;;0.70;;
37047;SDS011;23227;48.780;9.210;2022-12-28T06:33:15;0.87;;;0.80;;
37047;SDS011;23227;48.780;9.210;2022-12-28T06:36:19;1.47;;;0.70;;
37047;SDS011;23227;48.780;9.210;2022-12-28T06:39:23;1.43;;;0.60;;
37047;SDS011;23227;48.780;9.210;2022-12-28T06:42:26;0.67;;;0.60;;
37047;SDS011;23227;48.780;9.210;2022-12-28T06:45:29;1.10;;;0.90;;
37047;SDS011;23227;48.780;9.210;2022-12-28T06:48:32;1.90;;;0.70;;
37047;SDS011;23227;48.780;9.210;2022-12-28T06:51:36;3.83;;;0.85;;
37047;SDS011;23227;48.780;9.210;2022-12-28T06:54:43;3.20;;;0.70;;
37047;SDS011;23227;48.780;9.210;2022-12-28T06:57:45;2.17;;;0.70;;
37047;SDS011;23227;48.780;9.210;2022-12-28T07:00:48;2.57;;;1.17;;
37047;SDS011;23227;48.780;9.210;2022-12-28T07:03:51;2.00;;;0.88;;
37047;SDS011;23227;48.780;9.210;2022-12-28T07:06:55;3.67;;;0.97;;
37047;SDS011;23227;48.780;9.210;2022-12-28T07:09:59;2.30;;;1.10;;
37047;SDS011;23227;48.780;9.210;2022-12-28T07:16:06;4.35;;;1.00;;
37047;SDS011;23227;48.780;9.210;2022-12-28T07:19:11;2.87;;;0.80;;
37047;SDS011;23227;48.780;9.210;2022-12-28T07:22:14;2.77;;;1.33;;
37047;SDS011;23227;48.780;9.210;2022-12-28T07:25:18;1.73;;;0.93;;
37047;SDS011;23227;48.780;9.210;2022-12-28T07:28:21;1.63;;;0.70;;
37047;SDS011;23227;48.780;9.210;2022-12-28T07:31:24;1.50;;;0.80;;
37047;SDS011;23227;48.780;9.210;2022-12-28T07:34:27;2.20;;;0.70;;
37047;SDS011;23227;48.780;9.210;2022-12-28T07:37:30;3.63;;;1.73;;
37047;SDS011;23227;48.780;9.210;2022-12-28T07:40:34;2.87;;;0.90;;
37047;SDS011;23227;48.780;9.210;2022-12-28T07:43:37;0.93;;;0.80;;
37047;SDS011;23227;48.780;9.210;2022-12-28T07:46:40;4.38;;;0.73;;
37047;SDS011;23227;48.780;9.210;2022-12-28T07:49:43;3.43;;;1.00;;
37047;SDS011;23227;48.780;9.210;2022-12-28T07:52:45;3.80;;;1.40;;
37047;SDS011;23227;48.780;9.210;2022-12-28T07:55:54;1.23;;;0.80;;
37047;SDS011;23227;48.780;9.210;2022-12-28T07:58:59;1.30;;;0.97;;
37047;SDS011;23227;48.780;9.210;2022-12-28T08:02:02;2.00;;;1.13;;
37047;SDS011;23227;48.780;9.210;2022-12-28T08:05:06;3.22;;;0.90;;
37047;SDS011;23227;48.780;9.210;2022-12-28T08:08:09;3.78;;;0.90;;
37047;SDS011;23227;48.780;9.210;2022-12-28T08:11:14;4.47;;;0.97;;
37047;SDS011;23227;48.780;9.210;2022-12-28T08:14:17;1.63;;;0.90;;
37047;SDS011;23227;48.780;9.210;2022-12-28T08:17:20;2.20;;;0.98;;
37047;SDS011;23227;48.780;9.210;2022-12-28T08:20:23;2.63;;;1.13;;
37047;SDS011;23227;48.780;9.210;2022-12-28T08:23:26;4.72;;;1.27;;
37047;SDS011;23227;48.780;9.210;2022-12-28T08:26:30;1.43;;;0.90;;
37047;SDS011;23227;48.780;9.210;2022-12-28T08:29:34;3.23;;;0.90;;
37047;SDS011;23227;48.780;9.210;2022-12-28T08:32:36;1.67;;;0.97;;
37047;SDS011;23227;48.780;9.210;2022-12-28T08:35:39;2.40;;;1.10;;
37047;SDS011;23227;48.780;9.210;2022-12-28T08:38:42;2.67;;;1.07;;
37047;SDS011;23227;48.780;9.210;2022-12-28T08:41:47;1.00;;;0.80;;
37047;SDS011;23227;48.780;9.210;2022-12-28T08:44:49;1.53;;;0.80;;
37047;SDS011;23227;48.780;9.210;2022-12-28T08:47:52;3.17;;;1.03;;
37047;SDS011;23227;48.780;9.210;2022-12-28T08:50:59;1.95;;;0.95;;
37047;SDS011;23227;48.780;9.210;2022-12-28T08:54:02;1.80;;;1.10;;
37047;SDS011;23227;48.780;9.210;2022-12-28T08:57:06;3.22;;;0.95;;
37047;SDS011;23227;48.780;9.210;2022-12-28T09:00:09;2.27;;;1.47;;
37047;SDS011;23227;48.780;9.210;2022-12-28T09:03:12;3.33;;;1.10;;
37047;SDS011;23227;48.780;9.210;2022-12-28T09:06:16;2.77;;;0.90;;
37047;SDS011;23227;48.780;9.210;2022-12-28T09:09:19;3.13;;;1.40;;
37047;SDS011;23227;48.780;9.210;2022-12-28T09:12:23;2.73;;;1.20;;
37047;SDS011;23227;48.780;9.210;2022-12-28T09:15:26;1.50;;;1.03;;
37047;SDS011;23227;48.780;9.210;2022-12-28T09:18:28;2.40;;;1.20;;
37047;SDS011;23227;48.780;9.210;2022-12-28T09:21:32;4.93;;;1.30;;
37047;SDS011;23227;48.780;9.210;2022-12-28T09:24:37;3.77;;;1.30;;
37047;SDS011;23227;48.780;9.210;2022-12-28T09:27:41;3.07;;;1.27;;
37047;SDS011;23227;48.780;9.210;2022-12-28T09:30:43;2.00;;;1.13;;
37047;SDS011;23227;48.780;9.210;2022-12-28T09:33:46;5.57;;;1.50;;
37047;SDS011;23227;48.780;9.210;2022-12-28T09:37:24;1.30;;;1.00;;
37047;SDS011;23227;48.780;9.210;2022-12-28T09:40:27;2.93;;;1.50;;
37047;SDS011;23227;48.780;9.210;2022-12-28T09:43:30;3.53;;;1.40;;
37047;SDS011;23227;48.780;9.210;2022-12-28T09:46:33;2.53;;;1.50;;
37047;SDS011;23227;48.780;9.210;2022-12-28T09:49:40;2.47;;;1.10;;
37047;SDS011;23227;48.780;9.210;2022-12-28T09:52:45;3.37;;;1.10;;
37047;SDS011;23227;48.780;9.210;2022-12-28T09:55:53;1.27;;;1.13;;
37047;SDS011;23227;48.780;9.210;2022-12-28T09:59:01;3.23;;;1.60;;
37047;SDS011;23227;48.780;9.210;2022-12-28T10:02:08;2.37;;;1.63;;
37047;SDS011;23227;48.780;9.210;2022-12-28T10:05:18;4.37;;;1.90;;
37047;SDS011;23227;48.780;9.210;2022-12-28T10:08:22;3.27;;;2.00;;
37047;SDS011;23227;48.780;9.210;2022-12-28T10:11:26;2.22;;;1.60;;
37047;SDS011;23227;48.780;9.210;2022-12-28T10:14:32;3.90;;;1.57;;
37047;SDS011;23227;48.780;9.210;2022-12-28T10:17:37;2.53;;;1.83;;
37047;SDS011;23227;48.780;9.210;2022-12-28T10:20:41;3.83;;;1.50;;
37047;SDS011;23227;48.780;9.210;2022-12-28T10:23:44;3.27;;;1.50;;
37047;SDS011;23227;48.780;9.210;2022-12-28T10:27:10;3.10;;;1.58;;
37047;SDS011;23227;48.780;9.210;2022-12-28T10:30:16;4.03;;;1.53;;
37047;SDS011;23227;48.780;9.210;2022-12-28T10:33:20;3.07;;;1.40;;
37047;SDS011;23227;48.780;9.210;2022-12-28T10:36:23;1.40;;;1.15;;
37047;SDS011;23227;48.780;9.210;2022-12-28T10:39:37;4.83;;;1.30;;
37047;SDS011;23227;48.780;9.210;2022-12-28T10:42:41;1.73;;;1.20;;
37047;SDS011;23227;48.780;9.210;2022-12-28T10:45:48;2.77;;;1.20;;
37047;SDS011;23227;48.780;9.210;2022-12-28T10:48:52;3.07;;;1.40;;
37047;SDS011;23227;48.780;9.210;2022-12-28T10:52:00;6.03;;;1.73;;
37047;SDS011;23227;48.780;9.210;2022-12-28T10:58:28;2.70;;;1.30;;
37047;SDS011;23227;48.780;9.210;2022-12-28T11:01:35;2.33;;;1.10;;
37047;SDS011;23227;48.780;9.210;2022-12-28T11:04:50;2.97;;;1.00;;
37047;SDS011;23227;48.780;9.210;2022-12-28T11:08:02;1.70;;;1.10;;
37047;SDS011;23227;48.780;9.210;2022-12-28T11:11:06;2.23;;;1.00;;
37047;SDS011;23227;48.780;9.210;2022-12-28T11:14:12;1.90;;;1.23;;
37047;SDS011;23227;48.780;9.210;2022-12-28T11:17:20;2.73;;;1.00;;
37047;SDS011;23227;48.780;9.210;2022-12-28T11:20:28;2.73;;;1.10;;
37047;SDS011;23227;48.780;9.210;2022-12-28T11:23:33;1.77;;;0.80;;
37047;SDS011;23227;48.780;9.210;2022-12-28T11:26:36;0.90;;;0.73;;
37047;SDS011;23227;48.780;9.210;2022-12-28T11:29:39;3.17;;;1.08;;
37047;SDS011;23227;48.780;9.210;2022-12-28T11:32:47;3.33;;;1.20;;
37047;SDS011;23227;48.780;9.210;2022-12-28T11:35:53;2.93;;;0.80;;
37047;SDS011;23227;48.780;9.210;2022-12-28T11:39:28;1.20;;;0.80;;
37047;SDS011;23227;48.780;9.210;2022-12-28T11:42:53;1.63;;;0.90;;
37047;SDS011;23227;48.780;9.210;2022-12-28T11:45:57;2.70;;;0.93;;
37047;SDS011;23227;48.780;9.210;2022-12-28T11:55:39;7.03;;;0.77;;
37047;SDS011;23227;48.780;9.210;2022-12-28T11:59:00;1.52;;;0.60;;
37047;SDS011;23227;48.780;9.210;2022-12-28T12:05:49;2.27;;;0.60;;
37047;SDS011;23227;48.780;9.210;2022-12-28T12:08:52;4.00;;;0.77;;
37047;SDS011;23227;48.780;9.210;2022-12-28T12:11:57;0.50;;;0.50;;
37047;SDS011;23227;48.780;9.210;2022-12-28T12:15:01;4.80;;;1.10;;
37047;SDS011;23227;48.780;9.210;2022-12-28T12:18:13;1.83;;;0.73;;
37047;SDS011;23227;48.780;9.210;2022-12-28T12:21:21;3.03;;;0.90;;
37047;SDS011;23227;48.780;9.210;2022-12-28T12:24:31;1.33;;;0.70;;
37047;SDS011;23227;48.780;9.210;2022-12-28T12:27:39;1.10;;;0.70;;
37047;SDS011;23227;48.780;9.210;2022-12-28T12:30:43;2.70;;;0.90;;
37047;SDS011;23227;48.780;9.210;2022-12-28T12:33:46;1.88;;;0.90;;
37047;SDS011;23227;48.780;9.210;2022-12-28T12:37:10;1.33;;;0.60;;
37047;SDS011;23227;48.780;9.210;2022-12-28T12:40:43;1.20;;;0.60;;
37047;SDS011;23227;48.780;9.210;2022-12-28T12:43:57;1.23;;;0.60;;
37047;SDS011;23227;48.780;9.210;2022-12-28T12:54:23;2.73;;;0.63;;
37047;SDS011;23227;48.780;9.210;2022-12-28T12:57:32;2.90;;;0.60;;
37047;SDS011;23227;48.780;9.210;2022-12-28T13:00:40;1.57;;;0.60;;
37047;SDS011;23227;48.780;9.210;2022-12-28T13:03:49;2.33;;;0.83;;
37047;SDS011;23227;48.780;9.210;2022-12-28T13:06:53;1.77;;;0.82;;
37047;SDS011;23227;48.780;9.210;2022-12-28T13:09:59;4.23;;;0.80;;
37047;SDS011;23227;48.780;9.210;2022-12-28T13:13:03;1.33;;;0.87;;
37047;SDS011;23227;48.780;9.210;2022-12-28T13:16:09;2.05;;;0.85;;
37047;SDS011;23227;48.780;9.210;2022-12-28T13:19:15;1.43;;;0.87;;
37047;SDS011;23227;48.780;9.210;2022-12-28T13:22:27;3.17;;;1.33;;
37047;SDS011;23227;48.780;9.210;2022-12-28T13:25:32;2.33;;;1.07;;
37047;SDS011;23227;48.780;9.210;2022-12-28T13:28:35;1.35;;;0.60;;
37047;SDS011;23227;48.780;9.210;2022-12-28T13:31:40;2.30;;;0.70;;
37047;SDS011;23227;48.780;9.210;2022-12-28T13:34:49;1.63;;;0.60;;
37047;SDS011;23227;48.780;9.210;2022-12-28T13:37:59;1.73;;;0.70;;
37047;SDS011;23227;48.780;9.210;2022-12-28T13:41:04;1.60;;;1.07;;
37047;SDS011;23227;48.780;9.210;2022-12-28T13:44:25;2.90;;;0.80;;
37047;SDS011;23227;48.780;9.210;2022-12-28T13:47:33;1.77;;;0.90;;
37047;SDS011;23227;48.780;9.210;2022-12-28T13:50:38;2.73;;;0.70;;
37047;SDS011;23227;48.780;9.210;2022-12-28T13:53:42;0.98;;;0.70;;
37047;SDS011;23227;48.780;9.210;2022-12-28T13:56:47;2.20;;;1.00;;
37047;SDS011;23227;48.780;9.210;2022-12-28T13:59:49;2.00;;;0.70;;
37047;SDS011;23227;48.780;9.210;2022-12-28T14:05:57;1.23;;;0.57;;
37047;SDS011;23227;48.780;9.210;2022-12-28T14:09:02;1.63;;;0.90;;
37047;SDS011;23227;48.780;9.210;2022-12-28T14:12:06;3.27;;;0.70;;
37047;SDS011;23227;48.780;9.210;2022-12-28T14:15:09;2.20;;;0.88;;
37047;SDS011;23227;48.780;9.210;2022-12-28T14:18:15;1.53;;;0.70;;
37047;SDS011;23227;48.780;9.210;2022-12-28T14:21:29;1.33;;;0.93;;
37047;SDS011;23227;48.780;9.210;2022-12-28T14:24:33;1.40;;;0.93;;
37047;SDS011;23227;48.780;9.210;2022-12-28T14:27:36;2.03;;;1.00;;
37047;SDS011;23227;48.780;9.210;2022-12-28T14:30:41;1.23;;;0.70;;
37047;SDS011;23227;48.780;9.210;2022-12-28T14:33:49;1.95;;;0.80;;
37047;SDS011;23227;48.780;9.210;2022-12-28T14:36:53;1.63;;;0.90;;
37047;SDS011;23227;48.780;9.210;2022-12-28T14:43:03;5.00;;;0.80;;
37047;SDS011;23227;48.780;9.210;2022-12-28T14:46:15;3.53;;;0.90;;
37047;SDS011;23227;48.780;9.210;2022-12-28T14:49:33;4.07;;;0.90;;
37047;SDS011;23227;48.780;9.210;2022-12-28T14:52:41;2.13;;;1.20;;
37047;SDS011;23227;48.780;9.210;2022-12-28T14:55:52;3.60;;;0.90;;
37047;SDS011;23227;48.780;9.210;2022-12-28T14:58:57;1.03;;;0.80;;
37047;SDS011;23227;48.780;9.210;2022-12-28T15:02:01;3.23;;;1.20;;
37047;SDS011;23227;48.780;9.210;2022-12-28T15:05:30;3.17;;;1.03;;
37047;SDS011;23227;48.780;9.210;2022-12-28T15:08:35;1.60;;;1.07;;
37047;SDS011;23227;48.780;9.210;2022-12-28T15:11:38;2.30;;;1.00;;
37047;SDS011;23227;48.780;9.210;2022-12-28T15:14:41;1.93;;;0.90;;
37047;SDS011;23227;48.780;9.210;2022-12-28T15:17:44;1.98;;;0.88;;
37047;SDS011;23227;48.780;9.210;2022-12-28T15:20:48;2.65;;;1.40;;
37047;SDS011;23227;48.780;9.210;2022-12-28T15:23:52;1.27;;;0.90;;
37047;SDS011;23227;48.780;9.210;2022-12-28T15:26:55;1.70;;;1.17;;
37047;SDS011;23227;48.780;9.210;2022-12-28T15:29:58;4.40;;;1.03;;
37047;SDS011;23227;48.780;9.210;2022-12-28T15:33:12;1.50;;;0.70;;
37047;SDS011;23227;48.780;9.210;2022-12-28T15:36:16;1.70;;;0.70;;
37047;SDS011;23227;48.780;9.210;2022-12-28T15:39:20;1.40;;;0.77;;
37047;SDS011;23227;48.780;9.210;2022-12-28T15:42:23;1.73;;;0.88;;
37047;SDS011;23227;48.780;9.210;2022-12-28T15:45:26;2.87;;;1.03;;
37047;SDS011;23227;48.780;9.210;2022-12-28T15:48:28;2.53;;;1.17;;
37047;SDS011;23227;48.780;9.210;2022-12-28T15:51:32;1.90;;;1.25;;
37047;SDS011;23227;48.780;9.210;2022-12-28T15:54:35;1.10;;;0.70;;
37047;SDS011;23227;48.780;9.210;2022-12-28T15:57:44;1.53;;;0.90;;
37047;SDS011;23227;48.780;9.210;2022-12-28T16:00:46;2.40;;;1.20;;
37047;SDS011;23227;48.780;9.210;2022-12-28T16:03:49;2.85;;;1.02;;
37047;SDS011;23227;48.780;9.210;2022-12-28T16:06:53;2.85;;;1.10;;
37047;SDS011;23227;48.780;9.210;2022-12-28T16:09:56;1.07;;;0.90;;
37047;SDS011;23227;48.780;9.210;2022-12-28T16:12:59;3.23;;;1.03;;
37047;SDS011;23227;48.780;9.210;2022-12-28T16:16:05;2.53;;;1.35;;
37047;SDS011;23227;48.780;9.210;2022-12-28T16:19:08;1.37;;;1.13;;
37047;SDS011;23227;48.780;9.210;2022-12-28T16:22:13;1.63;;;0.90;;
37047;SDS011;23227;48.780;9.210;2022-12-28T16:25:16;2.20;;;1.20;;
37047;SDS011;23227;48.780;9.210;2022-12-28T16:28:18;4.10;;;1.77;;
37047;SDS011;23227;48.780;9.210;2022-12-28T16:31:21;2.20;;;1.20;;
37047;SDS011;23227;48.780;9.210;2022-12-28T16:34:26;2.90;;;1.43;;
37047;SDS011;23227;48.780;9.210;2022-12-28T16:37:30;3.95;;;1.45;;
37047;SDS011;23227;48.780;9.210;2022-12-28T16:40:33;3.37;;;1.70;;
37047;SDS011;23227;48.780;9.210;2022-12-28T16:43:35;3.53;;;1.20;;
37047;SDS011;23227;48.780;9.210;2022-12-28T16:46:38;2.33;;;1.03;;
37047;SDS011;23227;48.780;9.210;2022-12-28T16:49:41;4.43;;;1.20;;
37047;SDS011;23227;48.780;9.210;2022-12-28T16:52:45;1.40;;;1.13;;
37047;SDS011;23227;48.780;9.210;2022-12-28T16:55:48;5.53;;;1.10;;
37047;SDS011;23227;48.780;9.210;2022-12-28T16:58:53;2.50;;;1.10;;
37047;SDS011;23227;48.780;9.210;2022-12-28T17:01:57;2.63;;;1.10;;
37047;SDS011;23227;48.780;9.210;2022-12-28T17:05:00;2.90;;;1.63;;
37047;SDS011;23227;48.780;9.210;2022-12-28T17:08:04;4.43;;;1.80;;
37047;SDS011;23227;48.780;9.210;2022-12-28T17:11:08;3.33;;;1.73;;
37047;SDS011;23227;48.780;9.210;2022-12-28T17:14:11;3.38;;;1.83;;
37047;SDS011;23227;48.780;9.210;2022-12-28T17:17:21;3.40;;;1.90;;
37047;SDS011;23227;48.780;9.210;2022-12-28T17:20:24;5.18;;;2.30;;
37047;SDS011;23227;48.780;9.210;2022-12-28T17:23:29;3.40;;;1.67;;
37047;SDS011;23227;48.780;9.210;2022-12-28T17:26:32;2.57;;;1.50;;
37047;SDS011;23227;48.780;9.210;2022-12-28T17:29:35;2.88;;;1.73;;
37047;SDS011;23227;48.780;9.210;2022-12-28T17:32:39;3.30;;;1.55;;
37047;SDS011;23227;48.780;9.210;2022-12-28T17:38:46;4.07;;;1.70;;
37047;SDS011;23227;48.780;9.210;2022-12-28T17:41:49;3.23;;;1.80;;
37047;SDS011;23227;48.780;9.210;2022-12-28T17:44:52;3.73;;;1.60;;
37047;SDS011;23227;48.780;9.210;2022-12-28T17:47:55;3.30;;;1.53;;
37047;SDS011;23227;48.780;9.210;2022-12-28T17:50:58;2.22;;;1.70;;
37047;SDS011;23227;48.780;9.210;2022-12-28T17:54:02;4.20;;;2.23;;
37047;SDS011;23227;48.780;9.210;2022-12-28T17:57:05;4.70;;;2.07;;
37047;SDS011;23227;48.780;9.210;2022-12-28T18:00:08;3.90;;;2.10;;
37047;SDS011;23227;48.780;9.210;2022-12-28T18:03:12;3.80;;;2.40;;
37047;SDS011;23227;48.780;9.210;2022-12-28T18:06:30;2.53;;;1.77;;
37047;SDS011;23227;48.780;9.210;2022-12-28T18:09:34;3.53;;;2.58;;
37047;SDS011;23227;48.780;9.210;2022-12-28T18:12:37;3.20;;;1.90;;
37047;SDS011;23227;48.780;9.210;2022-12-28T18:15:40;3.23;;;2.07;;
37047;SDS011;23227;48.780;9.210;2022-12-28T18:18:44;5.33;;;2.27;;
37047;SDS011;23227;48.780;9.210;2022-12-28T18:21:47;3.67;;;2.50;;
37047;SDS011;23227;48.780;9.210;2022-12-28T18:24:52;5.28;;;2.65;;
37047;SDS011;23227;48.780;9.210;2022-12-28T18:27:55;6.50;;;2.90;;
37047;SDS011;23227;48.780;9.210;2022-12-28T18:30:58;3.83;;;2.15;;
37047;SDS011;23227;48.780;9.210;2022-12-28T18:34:02;4.47;;;2.00;;
37047;SDS011;23227;48.780;9.210;2022-12-28T18:37:06;4.40;;;2.30;;
37047;SDS011;23227;48.780;9.210;2022-12-28T18:40:11;4.10;;;2.27;;
37047;SDS011;23227;48.780;9.210;2022-12-28T18:43:14;2.37;;;1.77;;
37047;SDS011;23227;48.780;9.210;2022-12-28T18:46:17;2.63;;;1.58;;
37047;SDS011;23227;48.780;9.210;2022-12-28T18:49:19;4.07;;;1.80;;
37047;SDS011;23227;48.780;9.210;2022-12-28T18:52:23;3.47;;;1.52;;
37047;SDS011;23227;48.780;9.210;2022-12-28T18:55:27;3.47;;;1.77;;
37047;SDS011;23227;48.780;9.210;2022-12-28T18:58:31;2.63;;;1.73;;
37047;SDS011;23227;48.780;9.210;2022-12-28T19:01:35;3.97;;;2.00;;
37047;SDS011;23227;48.780;9.210;2022-12-28T19:04:59;5.13;;;2.10;;
37047;SDS011;23227;48.780;9.210;2022-12-28T19:08:02;3.75;;;2.50;;
37047;SDS011;23227;48.780;9.210;2022-12-28T19:11:08;3.17;;;1.98;;
37047;SDS011;23227;48.780;9.210;2022-12-28T19:14:12;2.03;;;1.60;;
37047;SDS011;23227;48.780;9.210;2022-12-28T19:17:16;3.57;;;2.07;;
37047;SDS011;23227;48.780;9.210;2022-12-28T19:20:18;4.15;;;2.20;;
37047;SDS011;23227;48.780;9.210;2022-12-28T19:23:21;3.07;;;2.07;;
37047;SDS011;23227;48.780;9.210;2022-12-28T19:26:25;3.42;;;2.00;;
37047;SDS011;23227;48.780;9.210;2022-12-28T19:29:29;3.30;;;1.90;;
37047;SDS011;23227;48.780;9.210;2022-12-28T19:35:35;3.13;;;2.37;;
37047;SDS011;23227;48.780;9.210;2022-12-28T19:38:37;5.10;;;2.37;;